createdAt,value
2023-04-21T00:02:37.956Z,16913.81
2023-04-21T00:06:39.456Z,16922.00
2023-04-21T00:10:41.216Z,16960.88
2023-04-21T00:14:42.630Z,16942.47
2023-04-21T00:18:45.354Z,16909.72
2023-04-21T00:22:46.870Z,16934.28
2023-04-21T00:26:48.278Z,16969.03
2023-04-21T00:30:49.690Z,16942.47
2023-04-21T00:34:52.433Z,16905.66
2023-04-21T00:38:53.886Z,16964.97
2023-04-21T00:42:55.306Z,16932.22
2023-04-21T00:46:56.702Z,16934.28
2023-04-21T00:50:59.441Z,16893.38
2023-04-21T00:55:00.848Z,16903.59
2023-04-21T00:59:03.137Z,16924.06
2023-04-21T01:03:06.448Z,16954.72
2023-04-21T01:07:09.633Z,16932.22
2023-04-21T01:11:11.550Z,16934.28
2023-04-21T01:15:13.966Z,16956.78
2023-04-21T01:19:15.324Z,16917.91
2023-04-21T01:23:18.076Z,16926.09
2023-04-21T01:27:20.554Z,16928.13
2023-04-21T01:31:21.955Z,16887.25
2023-04-21T01:35:23.452Z,16922.00
2023-04-21T01:39:26.331Z,16889.28
2023-04-21T01:43:27.798Z,16909.72
2023-04-21T01:47:29.412Z,16926.09
2023-04-21T01:51:30.807Z,16909.72
2023-04-21T01:55:33.643Z,16893.38
2023-04-21T01:59:35.222Z,16915.88
2023-04-21T02:03:36.865Z,16919.97
2023-04-21T02:07:38.382Z,16905.66
2023-04-21T02:11:41.093Z,16889.28
2023-04-21T02:15:42.724Z,16909.72
2023-04-21T02:19:44.415Z,16897.47
2023-04-21T02:23:46.029Z,16913.81
2023-04-21T02:27:49.011Z,16870.88
2023-04-21T02:32:00.770Z,16932.22
2023-04-21T02:36:05.538Z,16907.69
2023-04-21T02:40:08.378Z,16905.66
2023-04-21T02:44:11.327Z,16891.31
2023-04-21T02:48:12.725Z,16836.09
2023-04-21T02:52:14.307Z,16872.91
2023-04-21T02:56:15.702Z,16864.75
2023-04-21T03:00:18.902Z,16866.78
2023-04-21T03:04:20.482Z,16840.19
2023-04-21T03:08:22.056Z,16887.25
2023-04-21T03:12:23.439Z,16858.59
2023-04-21T03:16:26.459Z,16850.44
2023-04-21T03:20:28.012Z,16852.47
2023-04-21T03:24:29.446Z,16827.94
2023-04-21T03:28:30.874Z,16864.75
2023-04-21T03:32:33.687Z,16868.84
2023-04-21T03:36:35.120Z,16852.47
2023-04-21T03:40:37.081Z,16885.19
2023-04-21T03:44:38.484Z,16850.44
2023-04-21T03:48:41.216Z,16862.69
2023-04-21T03:52:42.948Z,16877.00
2023-04-21T03:56:44.421Z,16852.47
2023-04-21T04:00:45.854Z,16856.56
2023-04-21T04:04:48.710Z,16860.66
2023-04-21T04:08:50.185Z,16848.38
2023-04-21T04:12:51.891Z,16864.75
2023-04-21T04:16:53.271Z,16842.25
2023-04-21T04:20:55.978Z,16842.25
2023-04-21T04:24:57.383Z,16844.28
2023-04-21T04:28:58.732Z,16852.47
2023-04-21T04:33:00.262Z,16836.09
2023-04-21T04:37:03.212Z,16844.28
2023-04-21T04:41:04.826Z,16819.75
2023-04-21T04:45:07.231Z,16864.75
2023-04-21T04:49:10.902Z,16872.91
2023-04-21T04:53:13.619Z,16840.19
2023-04-21T04:57:14.962Z,16872.91
2023-04-21T05:01:17.486Z,16860.66
2023-04-21T05:05:19.126Z,16846.34
2023-04-21T05:09:21.931Z,16862.69
2023-04-21T05:13:23.350Z,16844.28
2023-04-21T05:17:24.836Z,16862.69
2023-04-21T05:21:28.429Z,16840.19
2023-04-21T05:25:31.469Z,16883.16
2023-04-21T05:29:32.945Z,16877.00
2023-04-21T05:33:34.303Z,16874.97
2023-04-21T05:37:35.675Z,16885.19
2023-04-21T05:41:38.434Z,16885.19
2023-04-21T05:45:40.095Z,16932.22
2023-04-21T05:49:41.513Z,16952.69
2023-04-21T05:53:44.229Z,16989.50
2023-04-21T05:57:47.259Z,16995.63
2023-04-21T06:01:48.632Z,17067.22
2023-04-21T06:05:53.795Z,17126.53
2023-04-21T06:09:55.289Z,17196.06
2023-04-21T06:13:58.262Z,17257.44
2023-04-21T06:17:59.717Z,17445.59
2023-04-21T06:22:01.107Z,17509.03
2023-04-21T06:26:03.681Z,17785.16
2023-04-21T06:30:08.090Z,17916.09
2023-04-21T06:34:09.551Z,17826.09
2023-04-21T06:38:11.078Z,17697.22
2023-04-21T06:42:12.516Z,17578.56
2023-04-21T06:46:15.499Z,17601.06
2023-04-21T06:50:17.108Z,17232.88
2023-04-21T06:54:18.551Z,17208.34
2023-04-21T06:58:21.448Z,17161.31
2023-04-21T07:02:24.634Z,17196.06
2023-04-21T07:06:27.002Z,17568.34
2023-04-21T07:10:28.720Z,17975.41
2023-04-21T07:14:30.152Z,17838.34
2023-04-21T07:18:32.884Z,17969.28
2023-04-21T07:22:34.280Z,18143.19
2023-04-21T07:26:35.694Z,17959.06
2023-04-21T07:30:37.287Z,18059.28
2023-04-21T07:34:40.296Z,17764.72
2023-04-21T07:38:41.920Z,17842.44
2023-04-21T07:42:44.558Z,18047.03
2023-04-21T07:46:46.333Z,17664.47
2023-04-21T07:50:49.279Z,17568.34
2023-04-21T07:54:50.749Z,17445.59
2023-04-21T07:58:52.421Z,17521.28
2023-04-21T08:02:53.939Z,17504.94
2023-04-21T08:06:56.915Z,17744.25
2023-04-21T08:10:58.338Z,17774.94
2023-04-21T08:14:59.729Z,17895.63
2023-04-21T08:19:01.097Z,17985.66
2023-04-21T08:23:03.919Z,17899.72
2023-04-21T08:27:05.484Z,17961.09
2023-04-21T08:31:06.905Z,17932.47
2023-04-21T08:35:09.099Z,18024.53
2023-04-21T08:39:11.865Z,17828.13
2023-04-21T08:43:13.335Z,17867.00
2023-04-21T08:47:15.398Z,17844.50
2023-04-21T08:51:21.951Z,18251.59
2023-04-21T08:55:29.395Z,17928.38
2023-04-21T08:59:31.065Z,17930.41
2023-04-21T09:03:32.837Z,17742.22
2023-04-21T09:07:36.334Z,18306.84
2023-04-21T09:11:39.064Z,18331.41
2023-04-21T09:15:40.702Z,17877.22
2023-04-21T09:19:42.847Z,17969.28
2023-04-21T09:23:46.986Z,18079.75
2023-04-21T09:27:49.706Z,17666.53
2023-04-21T09:31:51.510Z,18010.19
2023-04-21T09:35:53.043Z,18024.53
2023-04-21T09:40:04.091Z,18398.91
2023-04-21T09:44:07.727Z,17901.78
2023-04-21T09:48:10.348Z,18104.31
2023-04-21T09:52:19.156Z,17989.75
2023-04-21T09:56:25.062Z,18094.06
2023-04-21T10:00:29.181Z,18120.66
2023-04-21T10:04:32.057Z,18243.41
2023-04-21T10:08:35.029Z,18245.47
2023-04-21T10:12:36.601Z,18272.06
2023-04-21T10:16:39.689Z,18071.56
2023-04-21T10:21:02.960Z,18300.72
2023-04-21T10:25:08.298Z,18284.34
2023-04-21T10:29:10.637Z,18200.47
2023-04-21T10:33:17.584Z,18517.59
2023-04-21T10:37:19.215Z,18370.28
2023-04-21T10:41:27.955Z,18523.72
2023-04-21T10:45:30.443Z,18257.75
2023-04-21T10:49:38.412Z,18548.28
2023-04-21T10:53:43.817Z,18564.63
2023-04-21T10:57:45.572Z,18484.84
2023-04-21T11:01:47.052Z,18666.94
2023-04-21T11:05:49.813Z,18587.16
2023-04-21T11:09:57.820Z,18746.75
2023-04-21T11:14:00.245Z,18615.78
2023-04-21T11:18:01.840Z,18832.69
2023-04-21T11:22:05.376Z,18785.63
2023-04-21T11:26:06.808Z,18599.41
2023-04-21T11:30:09.657Z,18593.28
2023-04-21T11:34:11.400Z,18464.38
2023-04-21T11:38:14.169Z,18552.38
2023-04-21T11:42:21.440Z,18666.94
2023-04-21T11:46:25.030Z,18785.63
2023-04-21T11:50:30.847Z,18611.69
2023-04-21T11:54:33.640Z,18730.38
2023-04-21T11:58:35.134Z,18683.31
2023-04-21T12:02:36.639Z,18544.19
2023-04-21T12:06:38.395Z,18703.78
2023-04-21T12:10:44.607Z,18623.97
2023-04-21T12:14:46.323Z,18550.31
2023-04-21T12:18:48.630Z,18615.78
2023-04-21T12:22:50.714Z,18615.78
2023-04-21T12:26:53.787Z,18562.59
2023-04-21T12:30:55.246Z,18652.63
2023-04-21T12:34:56.913Z,18448.00
2023-04-21T12:38:58.314Z,18552.38
2023-04-21T12:43:01.716Z,18405.06
2023-04-21T12:47:03.168Z,18390.72
2023-04-21T12:51:04.723Z,18437.78
2023-04-21T12:55:06.612Z,18486.88
2023-04-21T12:59:10.331Z,18595.34
2023-04-21T13:03:12.020Z,18292.53
2023-04-21T13:07:13.941Z,18482.81
2023-04-21T13:11:15.442Z,18570.78
2023-04-21T13:15:18.434Z,18488.94
2023-04-21T13:19:19.849Z,18353.91
2023-04-21T13:23:21.279Z,18108.41
2023-04-21T13:27:22.715Z,18347.75
2023-04-21T13:31:25.748Z,18141.13
2023-04-21T13:35:27.287Z,18182.03
2023-04-21T13:39:28.747Z,18366.19
2023-04-21T13:43:30.346Z,18044.97
2023-04-21T13:47:33.894Z,18061.34
2023-04-21T13:51:35.330Z,17999.97
2023-04-21T13:55:36.889Z,17979.50
2023-04-21T13:59:38.486Z,18110.44
2023-04-21T14:03:41.690Z,18218.88
2023-04-21T14:07:43.731Z,18110.44
2023-04-21T14:11:45.314Z,18028.59
2023-04-21T14:15:46.779Z,17993.84
2023-04-21T14:19:50.209Z,18012.25
2023-04-21T14:23:52.012Z,17981.56
2023-04-21T14:27:53.753Z,18081.81
2023-04-21T14:31:55.170Z,18030.66
2023-04-21T14:35:57.977Z,18057.25
2023-04-21T14:39:59.466Z,18018.38
2023-04-21T14:44:00.943Z,18053.16
2023-04-21T14:48:02.707Z,18120.66
2023-04-21T14:52:06.225Z,18063.38
2023-04-21T14:56:07.664Z,18057.25
2023-04-21T15:00:10.214Z,17981.56
2023-04-21T15:04:11.896Z,17965.19
2023-04-21T15:08:14.823Z,17934.50
2023-04-21T15:12:16.307Z,17957.00
2023-04-21T15:16:17.853Z,17989.75
2023-04-21T15:20:24.399Z,18016.34
2023-04-21T15:24:32.515Z,18063.38
2023-04-21T15:28:34.025Z,18026.56
2023-04-21T15:32:35.443Z,18094.06
2023-04-21T15:36:36.929Z,18063.38
2023-04-21T15:40:53.134Z,17969.28
2023-04-21T15:45:02.243Z,17940.66
2023-04-21T15:49:03.718Z,17887.47
2023-04-21T15:53:05.172Z,17920.19
2023-04-21T15:57:08.050Z,17936.56
2023-04-21T16:01:09.738Z,17936.56
2023-04-21T16:05:11.511Z,17867.00
2023-04-21T16:09:12.954Z,17912.00
2023-04-21T16:13:15.859Z,17858.81
2023-04-21T16:17:17.286Z,17785.16
2023-04-21T16:21:18.824Z,17789.25
2023-04-21T16:25:20.364Z,17844.50
2023-04-21T16:29:23.239Z,17822.00
2023-04-21T16:33:24.666Z,17797.44
2023-04-21T16:37:26.171Z,17752.44
2023-04-21T16:41:27.696Z,17764.72
2023-04-21T16:45:30.535Z,17754.50
2023-04-21T16:49:32.015Z,17736.06
2023-04-21T16:53:33.678Z,17695.16
2023-04-21T16:57:35.176Z,17707.44
2023-04-21T17:01:38.258Z,17719.72
2023-04-21T17:05:40.077Z,17729.94
2023-04-21T17:09:41.668Z,17686.97
2023-04-21T17:13:43.128Z,17699.25
2023-04-21T17:17:45.950Z,17707.44
2023-04-21T17:21:47.755Z,17662.44
2023-04-21T17:25:49.426Z,17654.25
2023-04-21T17:29:50.886Z,17635.84
2023-04-21T17:33:53.665Z,17697.22
2023-04-21T17:37:55.378Z,17682.88
2023-04-21T17:41:56.848Z,17660.38
2023-04-21T17:45:58.379Z,17625.63
2023-04-21T17:50:01.401Z,17551.97
2023-04-21T17:54:03.058Z,17613.34
2023-04-21T17:58:04.806Z,17609.25
2023-04-21T18:02:07.157Z,17584.69
2023-04-21T18:06:10.063Z,17596.97
2023-04-21T18:10:12.400Z,17576.53
2023-04-21T18:14:13.812Z,17594.94
2023-04-21T18:18:15.209Z,17576.53
2023-04-21T18:22:17.976Z,17568.34
2023-04-21T18:30:21.135Z,17539.69
2023-04-21T18:34:22.609Z,17621.53
2023-04-21T18:38:25.982Z,17515.16
2023-04-21T18:42:27.891Z,17511.06
2023-04-21T18:46:29.361Z,17461.97
2023-04-21T18:50:30.779Z,17363.78
2023-04-21T18:54:33.574Z,17326.97
2023-04-21T18:58:35.010Z,17306.53
2023-04-21T19:02:36.943Z,17296.28
2023-04-21T19:06:38.563Z,17257.44
2023-04-21T19:10:41.800Z,17249.25
2023-04-21T19:14:47.494Z,17218.56
2023-04-21T19:18:49.209Z,17212.44
2023-04-21T19:22:50.700Z,17198.13
2023-04-21T19:26:53.662Z,17224.72
2023-04-21T19:30:55.101Z,17210.38
2023-04-21T19:34:56.556Z,17167.44
2023-04-21T19:38:59.005Z,17134.72
2023-04-21T19:43:01.797Z,17138.81
2023-04-21T19:47:03.210Z,17159.25
2023-04-21T19:51:04.665Z,17146.97
2023-04-21T19:55:06.428Z,17122.44
2023-04-21T19:59:09.221Z,17134.72
2023-04-21T20:03:10.761Z,17159.25
2023-04-21T20:07:12.301Z,17187.88
2023-04-21T20:11:13.761Z,17149.03
2023-04-21T20:15:17.870Z,17106.06
2023-04-21T20:19:19.314Z,17112.22
2023-04-21T20:23:20.813Z,17063.13
2023-04-21T20:27:22.238Z,17085.63
2023-04-21T20:31:25.044Z,17085.63
2023-04-21T20:35:26.618Z,17067.22
2023-04-21T20:39:28.084Z,17071.31
2023-04-21T20:43:29.825Z,17067.22
2023-04-21T20:47:33.202Z,17071.31
2023-04-21T20:51:39.831Z,17095.84
2023-04-21T20:55:42.368Z,17077.44
2023-04-21T20:59:43.816Z,17075.41
2023-04-21T21:03:46.912Z,17046.75
2023-04-21T21:07:48.778Z,17026.31
2023-04-21T21:11:50.270Z,17016.09
2023-04-21T21:15:52.045Z,17032.44
2023-04-21T21:19:54.857Z,17016.09
2023-04-21T21:23:56.328Z,17018.13
2023-04-21T21:27:57.776Z,17054.94
2023-04-21T21:31:59.552Z,17040.63
2023-04-21T21:36:02.389Z,17061.09
2023-04-21T21:40:04.606Z,17022.22
2023-04-21T21:44:06.093Z,17044.72
2023-04-21T21:48:07.720Z,17042.69
2023-04-21T21:52:10.584Z,17048.81
2023-04-21T21:56:16.123Z,17016.09
2023-04-21T22:00:17.685Z,17032.44
2023-04-21T22:04:19.145Z,17009.94
2023-04-21T22:08:21.963Z,17016.09
2023-04-21T22:12:23.392Z,17014.03
2023-04-21T22:16:25.443Z,16979.28
2023-04-21T22:20:27.039Z,17003.81
2023-04-21T22:24:29.803Z,16979.28
2023-04-21T22:28:31.510Z,17012.00
2023-04-21T22:32:32.985Z,16975.19
2023-04-21T22:36:34.705Z,17007.91
2023-04-21T22:40:38.260Z,16973.13
2023-04-21T22:44:39.969Z,16983.38
2023-04-21T22:48:41.435Z,16979.28
2023-04-21T22:52:42.884Z,16971.09
2023-04-21T22:56:45.705Z,16971.09
2023-04-21T23:00:47.271Z,16971.09
2023-04-21T23:04:48.951Z,16962.91
2023-04-21T23:08:50.292Z,16983.38
2023-04-21T23:12:53.119Z,17003.81
2023-04-21T23:16:54.669Z,16952.69
2023-04-21T23:20:56.203Z,16971.09
2023-04-21T23:24:57.914Z,16960.88
2023-04-21T23:29:00.734Z,16962.91
2023-04-21T23:33:02.688Z,16971.09
2023-04-21T23:37:04.267Z,16940.41
2023-04-21T23:41:05.848Z,16962.91
2023-04-21T23:45:09.766Z,16942.47
2023-04-21T23:49:11.512Z,16956.78
2023-04-21T23:53:12.896Z,16975.19
2023-04-21T23:57:14.292Z,16967.00
